# Land Stadt Wetter Temperatur Luftdruck Luftfeuchtigkeit Sichtweite Windgeschwindigkeit Windrichtung Ortszeit
1 de Oberstdorf Clouds 13 1018 90 0 2 210 02.08.2018 14:21
2 mg Antananarivo Mist 13 1022 100 2500 2 0 02.08.2018 14:21
3 ch Bern Clouds 16 1018 82 10000 2 212 02.08.2018 14:23
4 de Hannover Clouds 17 1015 77 10000 2 0 02.08.2018 14:21
5 de Freiburg Clouds 15 1017 64 0 2 250 02.08.2018 14:22
6 tr Ankara Clouds 21 1015 49 10000 2 0 02.08.2018 14:23
7 et Addis Abeba Rain 15 1015 73 0 2 246 02.08.2018 14:23
8 mx Veracruz Rain 26 1013 76 0 2 200 02.08.2018 14:21
9 cd Kisangani Clouds 23 1012 92 0 3 276 02.08.2018 14:23
10 pe Cusco Clear 8 1022 69 0 3 327 02.08.2018 14:23
11 de Emden Rain 15 1014 91 0 3 158 02.08.2018 14:21
12 de München Clouds 13 1018 93 0 3 94 02.08.2018 14:21
13 de Trier Clear 14 1017 62 10000 3 11 02.08.2018 14:21
14 ch Andermatt Clouds 10 1014 83 0 3 22 02.08.2018 14:23
15 us Death Valley Clear 25 1002 12 0 3 66 02.08.2018 14:22
16 no Oslo Rain 13 988 94 0 3 314 02.08.2018 14:23
17 at Wien Clouds 15 1019 67 10000 4 0 02.08.2018 14:22
18 es Sevilla Clear 24 1014 78 10000 4 80 02.08.2018 14:22
19 de Braunschweig Clouds 16 1015 63 10000 4 0 02.08.2018 14:21
20 br Manaus Clouds 23 1014 94 10000 4 110 02.08.2018 14:21
21 cl Santiago Mist 7 1019 93 5000 4 0 02.08.2018 14:23
22 de Kassel Clouds 15 1016 81 10000 4 260 02.08.2018 14:21
23 in Nagpur Haze 29 1005 83 4000 4 240 02.08.2018 14:21
24 nz Wellington Clouds 8 1022 81 10000 4 80 02.08.2018 14:23
25 ar Esquel Clouds -4 1025 92 0 4 324 02.08.2018 14:22
26 de Bremen Clouds 15 1015 87 10000 4 0 02.08.2018 14:22
27 se Stockholm Clouds 16 1014 77 10000 4 0 02.08.2018 14:23
28 de Stuttgart Clouds 17 1017 63 10000 4 0 02.08.2018 14:22
29 de Hiddensee Clouds 17 1019 76 0 5 135 02.08.2018 14:21
30 bo La Paz Clouds -3 1039 79 10000 5 60 02.08.2018 14:22
31 es Palma de Mallorca Clouds 22 1017 68 10000 5 330 02.08.2018 14:22
32 us Los Angeles Clear 19 1014 77 14484 5 260 02.08.2018 14:22
33 fr Paris Clouds 16 1018 63 10000 5 0 02.08.2018 14:22
34 vn Hanoi Clouds 35 1006 50 10000 5 0 02.08.2018 14:21
35 kr Seoul Clouds 23 1003 60 10000 5 350 02.08.2018 14:21
36 br Rio de Janeiro Clouds 20 1014 88 10000 5 120 02.08.2018 14:22
37 gl Nuuk Clouds 4 1012 93 0 5 290 02.08.2018 14:22
38 de Torfhaus Clouds 17 1017 77 0 5 189 02.08.2018 14:22
39 it Palermo Clouds 27 1012 74 10000 5 230 02.08.2018 14:22
40 ar Buenos Aires Clear 4 1024 48 10000 5 290 02.08.2018 14:22
41 at Innsbruck Clouds 12 1019 82 10000 5 270 02.08.2018 14:23
42 fr Bordeaux Clouds 17 1020 93 10000 5 260 02.08.2018 14:21
43 us Miami Clouds 27 1016 79 16093 5 230 02.08.2018 14:23
44 bo Potisi Clear 2 1021 74 0 6 354 02.08.2018 14:22
45 ke Nairobi Clouds 16 1022 82 10000 7 38 02.08.2018 14:22
46 ad Andorra la Vella Clouds 11 1016 78 0 7 21 02.08.2018 14:22
47 cn Lhasa Clouds 22 1005 34 0 7 182 02.08.2018 14:22
48 ck Avarua Clouds 20 1015 60 10000 8 120 02.08.2018 14:22
49 ma Marrakesch Clear 22 1014 73 0 8 250 02.08.2018 14:23
50 us Chicago Clear 22 1015 60 16093 8 160 02.08.2018 14:23
51 de Magdeburg Clear 18 1009 68 0 8 162 02.08.2018 14:22
52 qa Doha Clouds 40 998 26 10000 8 30 02.08.2018 14:23
53 ca Montreal Clear 20 1011 88 14484 8 10 02.08.2018 14:22
54 au Darwin Clear 31 1011 16 10000 8 60 02.08.2018 14:22
55 cn Peking Clear 37 999 39 0 8 184 02.08.2018 14:23
56 es Madrid Clouds 20 1019 42 10000 8 360 02.08.2018 14:23
57 ma Casablanca Clouds 21 1013 88 6000 8 320 02.08.2018 14:23
58 it Mailand Clouds 21 1017 64 10000 8 40 02.08.2018 14:21
59 id Jakarta Haze 29 1008 83 4000 8 230 02.08.2018 14:22
60 gb Manchester Clouds 13 1018 82 10000 8 300 02.08.2018 14:21
61 th Bangkok Clouds 33 1007 51 0 8 228 02.08.2018 14:21
62 de Frankfurt Clouds 18 1016 55 10000 8 60 02.08.2018 14:22
63 do Santo Domingo Clouds 27 1016 88 10000 8 20 02.08.2018 14:21
64 de Hamburg Clouds 17 1015 67 10000 8 150 02.08.2018 14:21
65 de Nürnberg Clouds 16 1018 63 10000 8 120 02.08.2018 14:21
66 de Köln Clouds 16 1016 77 10000 8 140 02.08.2018 14:21
67 bs Nassau Clouds 28 1017 83 10000 8 190 02.08.2018 14:22
68 de Berlin Clear 19 1016 59 10000 9 170 02.08.2018 14:21
69 eg Kairo Clouds 25 1006 73 10000 9 10 02.08.2018 14:22
70 jp Tokio Clouds 24 1000 88 7000 9 50 02.08.2018 14:22
71 fr Nizza Clouds 23 1015 64 10000 9 330 02.08.2018 14:22
72 de Helgoland Clouds 15 1015 77 10000 9 250 02.08.2018 14:22
73 iq Bagdad Clear 37 1000 29 10000 9 250 02.08.2018 14:22
74 us Fairbanks Clouds 16 1011 59 16093 9 190 02.08.2018 14:23
75 in Mumbai Rain 27 1005 100 2000 9 170 02.08.2018 14:22
76 us Tucson Clouds 34 1015 30 16093 9 168 02.08.2018 14:21
77 gb London Clouds 16 1016 88 10000 9 300 02.08.2018 14:22
78 mx Mexiko Stadt Clouds 17 1029 63 16093 9 280 02.08.2018 14:21
79 it Rom Clouds 21 1012 52 10000 9 30 02.08.2018 14:23
80 gb Glasgow Clouds 12 1016 81 10000 11 250 02.08.2018 14:21
81 au Sydney Rain 14 1009 79 0 11 161 02.08.2018 14:22
82 mv Male Clouds 31 1008 89 10000 11 360 02.08.2018 14:23
83 de Dresden Clouds 18 1018 52 10000 11 150 02.08.2018 14:22
84 cn Shanghai Clouds 27 1007 78 10000 11 330 02.08.2018 14:21
85 sb Honiara Clouds 27 1008 83 10000 11 200 02.08.2018 14:22
86 de Flensburg Rain 14 1014 82 10000 11 220 02.08.2018 14:21
87 jp Nagasaki Rain 24 1003 78 10000 11 290 02.08.2018 14:21
88 in Jagatsukh Clear 26 1008 39 0 12 203 02.08.2018 14:22
89 is Reykjavik Clouds 11 1009 81 10000 13 70 02.08.2018 14:22
90 za Kapstadt Rain 9 1024 66 10000 13 210 02.08.2018 14:22
91 fi Helsinki Clear 14 1015 71 10000 13 250 02.08.2018 14:21
92 us New York Clear 24 1012 57 16093 14 322 02.08.2018 14:22
93 ru Surgut Clouds 18 1021 52 10000 14 300 02.08.2018 14:23
94 tr Alanya Dust 25 1009 61 4000 14 314 02.08.2018 14:22
95 sa Riad Clouds 39 1005 13 10000 15 240 02.08.2018 14:21
96 uy Montevideo Clear 6 1021 56 10000 15 250 02.08.2018 14:22
97 es Tarifa Clear 24 1015 73 10000 15 100 02.08.2018 14:21
98 ar Ushuaia Clouds 0 1014 90 10000 15 290 02.08.2018 14:22
99 fj Suva Clouds 25 1013 78 10000 15 130 02.08.2018 14:21
100 bg Sofia Clouds 17 1018 63 10000 15 100 02.08.2018 14:21
101 af Kabul Clouds 25 1017 41 10000 15 70 02.08.2018 14:21
102 ph Manila Clouds 33 1008 59 10000 15 270 02.08.2018 14:21
103 ec San Cristobal Clear 20 1014 91 0 17 173 02.08.2018 14:22
104 ae Dubai Clear 38 999 42 10000 18 150 02.08.2018 14:21
105 ru Moskau Rain 17 1010 87 10000 18 360 02.08.2018 14:22
106 fi Rovaniemi Rain 11 1012 93 10000 18 60 02.08.2018 14:21
107 ru Jakutsk Clear 28 1004 28 10000 18 310 02.08.2018 14:22
108 us Denver Clouds 20 1017 63 16093 18 210 02.08.2018 14:21
109 ru Anadyr Rain 10 1002 93 10000 18 110 02.08.2018 14:23
110 us Honolulu Clouds 26 1015 61 16093 18 70 02.08.2018 14:22
111 gr Athen Clouds 24 1012 47 10000 18 350 02.08.2018 14:22
112 no Hammerfest Clear 10 1018 71 10000 18 90 02.08.2018 14:22
113 au Alice Springs Clear 18 1021 27 10000 18 80 02.08.2018 14:21
114 es Barcelona Clouds 22 1016 83 10000 21 330 02.08.2018 14:22
115 bg Warna Clear 18 1016 52 10000 21 10 02.08.2018 14:21
116 us Las Vegas Clear 35 1008 15 16093 22 220 02.08.2018 14:21
117 pt Lissabon Clear 21 1015 68 10000 22 310 02.08.2018 14:22
118 au Perth Clouds 17 1014 51 10000 22 270 02.08.2018 14:21
119 ua Kiew Clear 16 1012 63 10000 22 330 02.08.2018 14:21
120 tr Istanbul Clouds 23 1015 47 10000 24 40 02.08.2018 14:23
121 ie Dublin Clouds 11 1020 93 10000 24 280 02.08.2018 14:21
122 mn Ulaanbaatar Thunderstorm 25 1010 50 10000 25 160 02.08.2018 14:23
123 us Nome Clear 11 1010 76 16093 26 260 02.08.2018 14:23
124 mn Uliastai Clear 20 1003 30 0 29 238 02.08.2018 14:23
125 ru Werchojansk Clouds 23 1004 41 0 30 338 02.08.2018 14:22
126 pg Port Moresby Haze 30 1007 74 10000 33 160 02.08.2018 14:21
127 ru Amderma Clouds 7 1013 76 0 37 271 02.08.2018 14:23
128 es Las Palmas de Gran Canaria Clouds 21 1014 73 10000 41 360 02.08.2018 14:21